Time;durP1;ratioP1;P1;durP2;ratioP2;P2;SDS_P1;SDS_P2;PMS_P1;PMS_P2;Temp;Humidity;BMP_temperature;BMP_pressure;BME280_temperature;BME280_humidity;BME280_pressure;Samples;Min_cycle;Max_cycle;Signal;HPM_P1;HPM_P2
2023/08/30 00:01:14;;;;;;;8.55;6.97;;;;;;;14.39;95.31;100760.63;4964783;28;20122;-72
2023/08/30 00:03:41;;;;;;;9.93;6.90;;;;;;;14.30;95.32;100756.63;4966272;28;20042;-71
2023/08/30 00:06:08;;;;;;;9.63;7.20;;;;;;;14.23;94.98;100757.84;4967924;28;20057;-71
2023/08/30 00:08:36;;;;;;;9.93;7.35;;;;;;;14.12;94.60;100756.56;4964247;28;20053;-72
2023/08/30 00:11:04;;;;;;;8.55;6.95;;;;;;;14.04;95.14;100753.38;4960919;28;20118;-72
2023/08/30 00:13:32;;;;;;;9.43;7.22;;;;;;;13.96;94.50;100748.44;4966741;28;20043;-72
2023/08/30 00:16:02;;;;;;;9.40;7.45;;;;;;;13.90;93.94;100742.56;4943584;28;20098;-71
2023/08/30 00:18:30;;;;;;;8.70;7.80;;;;;;;13.82;94.17;100742.91;4966404;28;20043;-72
2023/08/30 00:20:58;;;;;;;9.82;7.20;;;;;;;13.75;94.52;100738.81;4968120;28;20062;-72
2023/08/30 00:23:25;;;;;;;8.32;6.65;;;;;;;13.69;94.94;100736.44;4954862;28;20070;-72
2023/08/30 00:25:52;;;;;;;10.32;7.50;;;;;;;13.63;94.95;100733.16;4965704;28;20578;-72
2023/08/30 00:28:19;;;;;;;9.55;7.45;;;;;;;13.57;94.72;100728.13;4965613;28;20575;-71
2023/08/30 00:30:52;;;;;;;9.15;8.15;;;;;;;13.51;94.84;100728.38;4965700;28;20078;-71
2023/08/30 00:33:19;;;;;;;8.77;7.50;;;;;;;13.46;94.84;100727.75;4961839;28;20042;-73
2023/08/30 00:35:46;;;;;;;8.18;7.35;;;;;;;13.43;95.15;100726.06;4967591;28;20042;-73
2023/08/30 00:38:13;;;;;;;10.10;7.60;;;;;;;13.41;95.28;100724.44;4961807;28;20081;-73
2023/08/30 00:40:41;;;;;;;12.95;7.60;;;;;;;13.39;95.47;100731.53;4967502;28;20035;-73
2023/08/30 00:43:09;;;;;;;9.45;7.25;;;;;;;13.36;95.61;100725.47;4950328;28;20039;-72
2023/08/30 00:45:40;;;;;;;10.38;7.47;;;;;;;13.31;95.71;100724.81;4967285;28;20058;-72
2023/08/30 00:48:07;;;;;;;10.60;7.60;;;;;;;13.27;95.96;100720.59;4965478;28;20051;-72
2023/08/30 00:50:36;;;;;;;10.02;8.18;;;;;;;13.24;95.77;100728.66;4966601;28;20487;-72
2023/08/30 00:53:06;;;;;;;10.63;7.68;;;;;;;13.18;96.15;100721.84;4967329;28;20042;-72
2023/08/30 00:55:38;;;;;;;10.07;7.88;;;;;;;13.13;96.21;100728.25;4968891;28;20142;-72
2023/08/30 00:58:07;;;;;;;10.90;8.00;;;;;;;13.04;96.35;100730.38;4949837;28;20339;-71
2023/08/30 01:00:35;;;;;;;10.27;7.97;;;;;;;12.94;96.63;100730.81;4951631;28;20466;-72
2023/08/30 01:03:06;;;;;;;11.02;8.80;;;;;;;12.82;96.79;100724.25;4961111;28;20067;-71
2023/08/30 01:05:33;;;;;;;11.45;8.65;;;;;;;12.72;97.07;100723.75;4964222;28;20061;-71
2023/08/30 01:08:01;;;;;;;13.50;9.30;;;;;;;12.64;97.37;100725.84;4966407;28;20118;-71
2023/08/30 01:11:02;;;;;;;12.20;8.93;;;;;;;12.57;97.76;100725.25;4970165;28;20051;-71
2023/08/30 01:13:37;;;;;;;10.95;9.00;;;;;;;12.47;98.02;100718.59;4947921;28;20508;-71
2023/08/30 01:16:05;;;;;;;11.02;9.15;;;;;;;12.40;98.11;100723.31;4969439;28;20038;-71
2023/08/30 01:18:36;;;;;;;12.27;8.98;;;;;;;12.36;98.51;100717.25;4966419;28;20054;-71
2023/08/30 01:21:11;;;;;;;13.02;9.18;;;;;;;12.33;98.68;100708.59;4965439;28;20539;-72
2023/08/30 01:23:58;;;;;;;11.73;9.95;;;;;;;12.31;98.92;100705.16;4952073;28;20042;-71
2023/08/30 01:26:51;;;;;;;12.95;9.50;;;;;;;12.26;99.11;100702.66;4966373;28;20531;-72
2023/08/30 01:29:20;;;;;;;13.40;9.10;;;;;;;12.25;99.23;100707.13;4943940;28;20049;-71
2023/08/30 01:31:49;;;;;;;13.00;10.02;;;;;;;12.23;99.51;100711.59;4960382;28;20049;-71
2023/08/30 01:34:17;;;;;;;12.32;10.57;;;;;;;12.21;99.45;100702.00;4966072;28;20641;-72
2023/08/30 01:36:45;;;;;;;12.00;10.60;;;;;;;12.17;99.77;100705.69;4966415;28;20166;-72
2023/08/30 01:39:15;;;;;;;11.88;10.13;;;;;;;12.12;100.00;100708.50;4967581;28;20514;-72
2023/08/30 01:41:44;;;;;;;15.93;10.18;;;;;;;12.08;99.99;100705.13;4961294;28;20502;-72
2023/08/30 01:44:16;;;;;;;14.00;10.18;;;;;;;12.04;100.00;100707.94;4949094;28;20051;-72
2023/08/30 01:46:45;;;;;;;11.98;10.38;;;;;;;12.01;100.00;100708.06;4951785;28;20557;-72
2023/08/30 01:49:13;;;;;;;12.07;10.30;;;;;;;11.99;100.00;100705.47;4965778;28;20463;-72
2023/08/30 01:51:41;;;;;;;14.43;9.98;;;;;;;12.01;100.00;100694.84;4966174;28;20129;-72
2023/08/30 01:54:16;;;;;;;14.15;11.00;;;;;;;12.03;100.00;100699.16;4964595;28;20050;-72
2023/08/30 01:56:45;;;;;;;14.80;11.85;;;;;;;12.02;100.00;100702.72;4966388;28;20047;-72
2023/08/30 01:59:13;;;;;;;12.20;10.00;;;;;;;12.02;100.00;100705.38;4948714;28;20051;-72
2023/08/30 02:01:40;;;;;;;17.40;11.65;;;;;;;12.06;100.00;100699.03;4949088;28;20043;-72
2023/08/30 02:04:07;;;;;;;12.65;10.60;;;;;;;12.11;100.00;100706.78;4963415;28;20051;-73
2023/08/30 02:06:54;;;;;;;14.50;11.10;;;;;;;12.17;100.00;100700.41;4965594;28;20051;-72
2023/08/30 02:09:57;;;;;;;14.07;11.05;;;;;;;12.23;100.00;100701.03;4965057;28;20066;-73
2023/08/30 02:12:42;;;;;;;13.90;10.68;;;;;;;12.25;100.00;100699.19;4937695;28;20047;-73
2023/08/30 02:15:12;;;;;;;12.57;10.93;;;;;;;12.29;100.00;100699.06;4946536;28;20150;-72
2023/08/30 02:17:40;;;;;;;13.23;11.15;;;;;;;12.30;100.00;100704.28;4959226;28;20046;-72
2023/08/30 02:20:08;;;;;;;12.75;11.43;;;;;;;12.33;100.00;100700.66;4950077;28;20066;-72
2023/08/30 02:22:35;;;;;;;13.45;11.27;;;;;;;12.38;100.00;100704.84;4949904;28;20047;-72
2023/08/30 02:25:06;;;;;;;16.10;11.75;;;;;;;12.43;100.00;100696.72;4967350;28;20050;-73
2023/08/30 02:27:37;;;;;;;14.65;11.65;;;;;;;12.50;100.00;100699.97;4965624;28;20043;-73
2023/08/30 02:30:05;;;;;;;13.23;11.85;;;;;;;12.54;100.00;100691.84;4961345;28;20043;-72
2023/08/30 02:32:33;;;;;;;15.00;11.90;;;;;;;12.57;100.00;100691.75;4964517;28;20038;-72
2023/08/30 02:35:00;;;;;;;13.55;11.02;;;;;;;12.60;100.00;100687.25;4966871;28;20055;-72
2023/08/30 02:37:27;;;;;;;13.35;11.70;;;;;;;12.63;100.00;100687.09;4964921;28;20055;-72
2023/08/30 02:39:54;;;;;;;13.43;10.50;;;;;;;12.65;100.00;100685.28;4958267;28;20042;-72
2023/08/30 02:42:21;;;;;;;14.73;11.30;;;;;;;12.64;100.00;100679.13;4966107;28;20141;-72
2023/08/30 02:44:48;;;;;;;16.23;12.25;;;;;;;12.61;100.00;100671.31;4963752;28;20043;-72
2023/08/30 02:47:15;;;;;;;12.98;11.27;;;;;;;12.57;100.00;100667.94;4964994;28;20128;-72
2023/08/30 02:49:42;;;;;;;12.85;10.68;;;;;;;12.51;100.00;100669.97;4948023;28;20845;-72
2023/08/30 02:52:10;;;;;;;13.88;11.30;;;;;;;12.46;100.00;100670.16;4951519;28;20054;-72
2023/08/30 02:54:37;;;;;;;12.50;11.10;;;;;;;12.41;100.00;100673.00;4966861;28;20043;-72
2023/08/30 02:57:04;;;;;;;14.05;11.68;;;;;;;12.35;100.00;100669.75;4951070;28;20047;-71
2023/08/30 02:59:31;;;;;;;17.80;12.48;;;;;;;12.30;100.00;100677.00;4966116;28;20129;-71
2023/08/30 03:02:04;;;;;;;14.93;12.00;;;;;;;12.24;100.00;100672.81;4949549;28;20088;-71
2023/08/30 03:04:31;;;;;;;14.63;12.43;;;;;;;12.17;100.00;100666.03;4952105;28;20043;-72
2023/08/30 03:06:58;;;;;;;16.70;12.55;;;;;;;12.13;100.00;100667.09;4948817;28;20039;-71
2023/08/30 03:09:27;;;;;;;15.18;12.48;;;;;;;12.07;100.00;100662.91;4944168;28;20043;-71
2023/08/30 03:11:54;;;;;;;14.32;12.35;;;;;;;12.02;100.00;100668.38;4966297;28;20045;-72
2023/08/30 03:14:22;;;;;;;18.13;13.38;;;;;;;11.96;100.00;100668.56;4948387;28;20351;-72
2023/08/30 03:16:50;;;;;;;16.60;12.77;;;;;;;11.90;100.00;100672.34;4964705;28;20057;-73
2023/08/30 03:19:17;;;;;;;15.00;12.43;;;;;;;11.83;100.00;100656.78;4948594;28;20038;-73
2023/08/30 03:21:44;;;;;;;17.38;13.68;;;;;;;11.77;100.00;100648.16;4950304;28;20078;-73
2023/08/30 03:24:13;;;;;;;15.02;13.07;;;;;;;11.76;100.00;100645.59;4950024;28;20060;-73
2023/08/30 03:26:43;;;;;;;15.68;14.05;;;;;;;11.74;100.00;100643.00;4967209;28;20038;-73
2023/08/30 03:29:11;;;;;;;19.48;14.70;;;;;;;11.73;100.00;100640.41;4943953;28;20046;-72
2023/08/30 03:31:38;;;;;;;18.88;14.55;;;;;;;11.72;100.00;100636.94;4961244;28;20043;-72
2023/08/30 03:34:05;;;;;;;15.85;13.48;;;;;;;11.72;100.00;100636.03;4945064;28;20435;-72
2023/08/30 03:36:32;;;;;;;18.55;15.10;;;;;;;11.73;100.00;100629.84;4962185;28;20039;-72
2023/08/30 03:39:00;;;;;;;16.15;14.10;;;;;;;11.75;100.00;100626.22;4946640;28;20149;-72
2023/08/30 03:41:27;;;;;;;18.15;15.40;;;;;;;11.78;100.00;100617.34;4966178;28;20101;-72
2023/08/30 03:43:54;;;;;;;17.98;15.15;;;;;;;11.82;100.00;100621.56;4946195;28;20039;-72
2023/08/30 03:46:21;;;;;;;19.42;14.80;;;;;;;11.85;100.00;100610.88;4947573;28;20042;-72
2023/08/30 03:48:48;;;;;;;15.20;13.60;;;;;;;11.89;100.00;100612.50;4964858;28;20556;-72
2023/08/30 03:51:16;;;;;;;16.67;13.73;;;;;;;11.93;100.00;100611.44;4947689;28;20069;-72
2023/08/30 03:53:44;;;;;;;16.08;14.27;;;;;;;11.94;100.00;100610.53;4950642;28;20043;-72
2023/08/30 03:56:11;;;;;;;18.30;14.45;;;;;;;11.95;100.00;100599.03;4947007;28;20384;-72
2023/08/30 03:58:38;;;;;;;16.45;14.38;;;;;;;11.93;100.00;100598.22;4962387;28;20368;-73
2023/08/30 04:01:06;;;;;;;17.33;14.57;;;;;;;11.90;100.00;100598.38;4963315;28;20047;-72
2023/08/30 04:03:34;;;;;;;17.80;14.60;;;;;;;11.88;100.00;100597.56;4949018;28;20046;-72
2023/08/30 04:06:01;;;;;;;18.92;14.95;;;;;;;11.83;100.00;100594.25;4949402;28;20090;-72
2023/08/30 04:08:29;;;;;;;17.10;14.25;;;;;;;11.79;100.00;100585.59;4946933;28;20510;-73
2023/08/30 04:10:56;;;;;;;18.38;15.02;;;;;;;11.75;100.00;100586.59;4946714;28;20207;-71
2023/08/30 04:13:23;;;;;;;20.10;15.60;;;;;;;11.73;100.00;100577.91;4962575;28;20352;-71
2023/08/30 04:15:51;;;;;;;17.50;15.60;;;;;;;11.73;100.00;100575.28;4962945;28;20049;-71
2023/08/30 04:18:18;;;;;;;17.95;14.75;;;;;;;11.74;100.00;100568.19;4945657;28;20491;-71
2023/08/30 04:20:47;;;;;;;16.60;14.90;;;;;;;11.72;100.00;100565.63;4948370;28;20570;-71
2023/08/30 04:23:14;;;;;;;17.35;13.55;;;;;;;11.70;100.00;100564.81;4964151;28;20039;-71
2023/08/30 04:25:44;;;;;;;17.55;14.70;;;;;;;11.66;100.00;100557.94;4959506;28;20039;-71
2023/08/30 04:28:12;;;;;;;17.85;14.48;;;;;;;11.65;100.00;100562.38;4962668;28;20042;-72
2023/08/30 04:30:39;;;;;;;18.20;15.45;;;;;;;11.63;100.00;100553.63;4945932;28;20035;-72
2023/08/30 04:33:07;;;;;;;18.35;15.70;;;;;;;11.62;100.00;100549.28;4949486;28;20042;-73
2023/08/30 04:35:35;;;;;;;19.17;15.60;;;;;;;11.63;100.00;100553.63;4963088;28;20538;-73
2023/08/30 04:38:03;;;;;;;19.35;15.73;;;;;;;11.66;100.00;100555.28;4947575;28;20047;-74
2023/08/30 04:40:32;;;;;;;19.45;15.30;;;;;;;11.68;100.00;100542.03;4951398;28;20043;-74
2023/08/30 04:43:00;;;;;;;19.10;15.45;;;;;;;11.69;100.00;100543.75;4948791;28;20461;-73
2023/08/30 04:45:28;;;;;;;19.05;15.57;;;;;;;11.71;100.00;100547.19;4958414;28;20051;-73
2023/08/30 04:47:56;;;;;;;20.77;16.13;;;;;;;11.74;100.00;100555.88;4946907;28;20074;-72
2023/08/30 04:50:25;;;;;;;19.27;15.48;;;;;;;11.76;100.00;100551.38;4952834;28;20496;-73
2023/08/30 04:52:52;;;;;;;17.85;15.60;;;;;;;11.79;100.00;100542.47;4951785;28;20413;-73
2023/08/30 04:55:19;;;;;;;17.60;15.70;;;;;;;11.81;100.00;100543.25;4949097;28;20522;-71
2023/08/30 04:57:47;;;;;;;17.40;14.85;;;;;;;11.81;100.00;100535.31;4951736;28;20046;-71
2023/08/30 05:00:18;;;;;;;28.00;16.95;;;;;;;11.84;100.00;100543.13;4949847;28;20137;-72
2023/08/30 05:02:46;;;;;;;20.80;15.70;;;;;;;11.85;100.00;100534.28;4950651;28;20057;-72
2023/08/30 05:05:14;;;;;;;21.15;16.00;;;;;;;11.89;100.00;100541.19;4947616;28;20409;-72
2023/08/30 05:07:42;;;;;;;19.40;16.13;;;;;;;11.92;100.00;100545.47;4972290;28;20039;-71
2023/08/30 05:10:10;;;;;;;18.83;15.90;;;;;;;11.94;100.00;100544.47;4958266;28;20041;-71
2023/08/30 05:12:37;;;;;;;20.15;16.65;;;;;;;12.00;100.00;100542.56;4965339;28;20134;-71
2023/08/30 05:15:05;;;;;;;22.55;17.08;;;;;;;12.05;100.00;100544.09;4954819;28;20039;-71
2023/08/30 05:17:33;;;;;;;25.52;17.33;;;;;;;12.13;100.00;100542.91;4958399;28;20039;-70
2023/08/30 05:20:01;;;;;;;23.30;16.80;;;;;;;12.23;100.00;100541.59;4958862;28;20141;-72
2023/08/30 05:22:28;;;;;;;20.75;17.58;;;;;;;12.33;100.00;100544.69;4954105;28;20066;-72
2023/08/30 05:24:55;;;;;;;21.38;16.55;;;;;;;12.54;100.00;100542.94;4963703;28;20043;-71
2023/08/30 05:27:22;;;;;;;24.00;17.00;;;;;;;12.96;100.00;100535.81;4955703;28;20043;-72
2023/08/30 05:29:50;;;;;;;20.52;16.20;;;;;;;13.38;100.00;100533.91;4935931;28;20598;-72
2023/08/30 05:32:18;;;;;;;18.88;15.82;;;;;;;13.71;100.00;100527.97;4948543;28;20419;-71
2023/08/30 05:35:06;;;;;;;20.48;15.20;;;;;;;13.73;100.00;100520.81;4922322;28;20066;-72
2023/08/30 05:37:59;;;;;;;20.52;16.30;;;;;;;13.69;100.00;100516.56;4947947;28;20058;-72
2023/08/30 05:40:49;;;;;;;18.73;14.57;;;;;;;13.61;100.00;100512.50;4935093;28;20058;-71
2023/08/30 05:43:18;;;;;;;20.70;15.25;;;;;;;13.60;100.00;100509.94;4950651;28;20137;-71
2023/08/30 05:45:45;;;;;;;19.80;15.35;;;;;;;13.59;100.00;100518.81;4963394;28;20498;-71
2023/08/30 05:48:12;;;;;;;21.02;16.35;;;;;;;13.58;100.00;100511.81;4966578;28;20166;-71
2023/08/30 05:50:40;;;;;;;19.48;16.67;;;;;;;13.57;100.00;100512.72;4947999;28;20093;-71
2023/08/30 05:53:07;;;;;;;21.08;15.93;;;;;;;13.59;100.00;100513.53;4963903;28;20039;-71
2023/08/30 05:55:34;;;;;;;18.83;16.23;;;;;;;13.61;100.00;100512.50;4974484;28;20582;-71
2023/08/30 05:58:02;;;;;;;19.63;15.75;;;;;;;13.62;100.00;100511.59;4949604;28;20045;-71
2023/08/30 06:00:29;;;;;;;22.73;17.13;;;;;;;13.66;100.00;100521.13;4965569;28;20381;-71
2023/08/30 06:02:56;;;;;;;28.35;16.63;;;;;;;13.69;100.00;100512.16;4964435;28;20045;-71
2023/08/30 06:05:23;;;;;;;27.30;16.55;;;;;;;13.74;100.00;100515.41;4965519;28;20596;-71
2023/08/30 06:07:50;;;;;;;22.60;16.63;;;;;;;13.78;100.00;100514.34;4963368;28;20038;-71
2023/08/30 06:10:17;;;;;;;21.55;16.80;;;;;;;13.84;100.00;100502.59;4966359;28;20093;-71
2023/08/30 06:12:46;;;;;;;20.50;16.33;;;;;;;13.91;100.00;100497.84;4963775;28;20035;-71
2023/08/30 06:15:13;;;;;;;19.23;16.02;;;;;;;14.02;100.00;100484.06;4964867;28;20333;-71
2023/08/30 06:17:40;;;;;;;22.67;16.08;;;;;;;14.12;100.00;100482.66;4966888;28;20042;-71
2023/08/30 06:20:08;;;;;;;16.77;14.98;;;;;;;14.23;100.00;100479.47;4962495;28;20050;-72
2023/08/30 06:22:35;;;;;;;23.42;14.70;;;;;;;14.34;100.00;100482.44;4963099;28;20105;-71
2023/08/30 06:25:04;;;;;;;21.67;15.18;;;;;;;14.41;100.00;100477.63;4965342;28;20507;-72
2023/08/30 06:27:31;;;;;;;26.98;14.40;;;;;;;14.51;100.00;100475.38;4966359;28;20049;-72
2023/08/30 06:29:58;;;;;;;47.92;16.55;;;;;;;14.59;99.97;100476.69;4963756;28;20047;-71
2023/08/30 06:32:25;;;;;;;21.25;14.75;;;;;;;14.69;99.93;100477.06;4961283;28;20726;-71
2023/08/30 06:34:52;;;;;;;32.88;15.55;;;;;;;14.77;99.76;100474.03;4963125;28;20076;-71
2023/08/30 06:37:19;;;;;;;21.70;15.80;;;;;;;14.81;99.23;100467.59;4964054;28;20043;-71
2023/08/30 06:39:46;;;;;;;24.70;15.70;;;;;;;14.83;98.59;100470.19;4965228;28;20670;-71
2023/08/30 06:42:13;;;;;;;40.92;16.42;;;;;;;14.85;98.77;100476.28;4965243;28;20066;-71
2023/08/30 06:44:40;;;;;;;23.35;15.77;;;;;;;14.89;98.53;100472.50;4966743;28;20340;-71
2023/08/30 06:47:08;;;;;;;18.70;15.90;;;;;;;14.95;98.10;100466.88;4963915;28;20055;-71
2023/08/30 06:49:35;;;;;;;29.50;15.32;;;;;;;15.01;97.88;100473.59;4946100;28;20043;-71
2023/08/30 06:52:03;;;;;;;40.45;17.70;;;;;;;15.04;97.82;100466.34;4965325;28;20469;-72
2023/08/30 06:54:34;;;;;;;37.00;17.55;;;;;;;15.09;97.67;100470.53;4966365;28;20133;-71
2023/08/30 06:57:02;;;;;;;35.55;17.35;;;;;;;15.12;97.56;100465.91;4963580;28;20043;-71
2023/08/30 06:59:30;;;;;;;46.78;16.48;;;;;;;15.18;97.32;100465.59;4965659;28;20043;-74
2023/08/30 07:01:57;;;;;;;33.00;16.02;;;;;;;15.23;97.29;100462.69;4967318;28;20051;-74
2023/08/30 07:04:24;;;;;;;25.45;14.10;;;;;;;15.26;97.37;100469.59;4966543;28;20031;-74
2023/08/30 07:06:52;;;;;;;43.35;16.40;;;;;;;15.27;97.27;100461.53;4965764;28;20496;-73
2023/08/30 07:09:19;;;;;;;18.52;13.48;;;;;;;15.28;96.41;100468.56;4965523;28;20046;-73
2023/08/30 07:11:49;;;;;;;23.85;14.50;;;;;;;15.26;96.11;100480.22;4965732;28;20157;-74
2023/08/30 07:14:16;;;;;;;20.08;12.98;;;;;;;15.22;96.19;100472.44;4965231;28;20504;-74
2023/08/30 07:16:44;;;;;;;55.65;17.02;;;;;;;15.22;96.13;100485.69;4964649;28;20059;-74
2023/08/30 07:19:11;;;;;;;21.45;13.75;;;;;;;15.22;96.01;100483.03;4965890;28;20053;-74
2023/08/30 07:21:38;;;;;;;24.75;14.68;;;;;;;15.20;95.87;100484.97;4965728;28;20395;-74
2023/08/30 07:24:07;;;;;;;23.15;12.80;;;;;;;15.22;95.66;100492.81;4965380;28;20191;-74
2023/08/30 07:26:35;;;;;;;20.65;12.23;;;;;;;15.22;95.29;100501.63;4966556;28;20038;-73
2023/08/30 07:29:06;;;;;;;39.15;14.32;;;;;;;15.21;95.02;100494.59;4965929;28;20098;-73
2023/08/30 07:31:33;;;;;;;24.17;14.07;;;;;;;15.22;94.25;100503.44;4965270;28;20359;-75
2023/08/30 07:34:01;;;;;;;19.88;12.68;;;;;;;15.22;93.37;100495.47;4965595;28;20039;-74
2023/08/30 07:36:29;;;;;;;17.55;13.40;;;;;;;15.20;93.05;100506.19;4965729;28;20133;-75
2023/08/30 07:39:12;;;;;;;;;;;;;;;15.14;92.90;100500.38;4965712;28;20070;-75
2023/08/30 07:41:39;;;;;;;16.85;13.40;;;;;;;15.03;93.22;100501.81;4963683;28;19922;-75
2023/08/30 07:44:07;;;;;;;18.83;14.32;;;;;;;14.94;93.63;100502.31;4961947;28;20042;-75
2023/08/30 07:46:34;;;;;;;23.02;16.13;;;;;;;14.81;94.35;100487.97;4961939;28;22189;-75
2023/08/30 07:49:02;;;;;;;19.90;15.02;;;;;;;14.71;95.49;100483.16;4964307;28;20070;-73
2023/08/30 07:51:29;;;;;;;19.98;15.82;;;;;;;14.59;96.25;100474.03;4961399;28;20050;-76
2023/08/30 07:53:56;;;;;;;21.50;17.25;;;;;;;14.49;97.38;100466.63;4965119;28;20474;-74
2023/08/30 07:56:23;;;;;;;22.55;16.75;;;;;;;14.41;98.44;100465.25;4962597;28;20471;-73
2023/08/30 07:58:50;;;;;;;24.52;16.50;;;;;;;14.34;99.65;100465.66;4963988;28;20169;-73
2023/08/30 08:01:17;;;;;;;19.63;17.52;;;;;;;14.29;100.00;100469.38;4963888;28;20055;-74
2023/08/30 08:03:45;;;;;;;22.15;16.92;;;;;;;14.25;100.00;100464.31;4964390;28;20066;-75
2023/08/30 08:06:31;;;;;;;23.45;17.70;;;;;;;14.22;100.00;100460.03;4964471;28;20062;-74
2023/08/30 08:08:59;;;;;;;23.75;18.38;;;;;;;14.18;100.00;100462.94;4965905;28;20038;-75
2023/08/30 08:11:26;;;;;;;21.35;16.67;;;;;;;14.14;100.00;100449.81;4964535;28;20157;-75
2023/08/30 08:13:54;;;;;;;19.85;17.23;;;;;;;14.13;100.00;100457.88;4966013;28;20492;-74
2023/08/30 08:16:21;;;;;;;18.70;16.23;;;;;;;14.12;100.00;100449.06;4965543;28;20043;-74
2023/08/30 08:18:50;;;;;;;21.50;16.73;;;;;;;14.11;100.00;100449.13;4963998;28;20484;-74
2023/08/30 08:21:18;;;;;;;20.20;16.95;;;;;;;14.10;100.00;100450.94;4965006;28;20054;-75
2023/08/30 08:23:49;;;;;;;22.55;16.73;;;;;;;14.09;100.00;100443.91;4965664;28;20051;-74
2023/08/30 08:26:16;;;;;;;20.92;17.42;;;;;;;14.08;100.00;100441.34;4967068;28;20393;-75
2023/08/30 08:28:43;;;;;;;23.30;18.20;;;;;;;14.06;100.00;100438.75;4970617;28;20042;-75
2023/08/30 08:31:10;;;;;;;24.85;18.00;;;;;;;14.08;100.00;100442.19;4968715;28;20455;-74
2023/08/30 08:33:38;;;;;;;24.45;18.92;;;;;;;14.09;100.00;100428.00;4973544;28;20113;-75
2023/08/30 08:36:05;;;;;;;20.98;18.20;;;;;;;14.07;100.00;100434.34;4970040;28;20043;-75
2023/08/30 08:38:32;;;;;;;23.98;18.67;;;;;;;14.07;100.00;100427.22;4969305;28;20038;-75
2023/08/30 08:41:05;;;;;;;26.05;18.85;;;;;;;14.10;100.00;100418.25;4977793;28;20035;-75
2023/08/30 08:43:36;;;;;;;20.58;18.33;;;;;;;14.12;100.00;100424.34;4968000;28;20043;-75
2023/08/30 08:46:06;;;;;;;21.20;18.23;;;;;;;14.12;100.00;100427.88;4951038;28;20066;-76
2023/08/30 08:48:40;;;;;;;22.85;18.40;;;;;;;14.17;100.00;100422.31;4969077;28;20055;-76
2023/08/30 08:51:08;;;;;;;22.33;18.30;;;;;;;14.19;100.00;100425.75;4950321;28;20043;-75
2023/08/30 08:53:37;;;;;;;19.17;16.48;;;;;;;14.21;100.00;100415.06;4964944;28;20035;-75
2023/08/30 08:56:08;;;;;;;19.17;15.70;;;;;;;14.21;100.00;100413.25;4950737;28;20439;-76
2023/08/30 08:58:38;;;;;;;18.63;15.57;;;;;;;14.22;100.00;100411.47;4969500;28;20554;-74
2023/08/30 09:01:06;;;;;;;18.42;15.50;;;;;;;14.21;100.00;100409.75;4969792;28;20137;-75
2023/08/30 09:03:44;;;;;;;17.17;14.43;;;;;;;14.19;100.00;100414.28;4968673;28;20042;-75
2023/08/30 09:06:12;;;;;;;18.08;13.40;;;;;;;14.16;100.00;100410.00;4967293;28;20492;-75
2023/08/30 09:08:39;;;;;;;14.35;11.88;;;;;;;14.16;100.00;100412.66;4968583;28;20078;-75
2023/08/30 09:11:07;;;;;;;13.50;11.95;;;;;;;14.15;100.00;100405.63;4966186;28;20586;-74
2023/08/30 09:13:35;;;;;;;14.95;11.00;;;;;;;14.19;100.00;100416.94;4965875;28;20384;-73
2023/08/30 09:16:02;;;;;;;12.80;10.20;;;;;;;14.20;100.00;100408.88;4967629;28;20073;-73
2023/08/30 09:18:29;;;;;;;10.65;9.25;;;;;;;14.21;100.00;100409.75;4963173;28;20062;-73
2023/08/30 09:21:07;;;;;;;10.45;9.13;;;;;;;14.25;100.00;100419.25;4967851;28;20051;-73
2023/08/30 09:23:35;;;;;;;10.13;8.40;;;;;;;14.23;100.00;100408.72;4962300;28;20042;-73
2023/08/30 09:26:04;;;;;;;12.23;8.32;;;;;;;14.25;100.00;100414.81;4966727;28;20074;-73
2023/08/30 09:28:34;;;;;;;10.07;6.72;;;;;;;14.29;100.00;100407.56;4963683;28;20105;-73
2023/08/30 09:31:01;;;;;;;9.65;7.25;;;;;;;14.31;100.00;100415.41;4968100;28;20047;-74
2023/08/30 09:33:50;;;;;;;7.65;6.55;;;;;;;14.32;100.00;100411.81;4968443;28;20113;-73
2023/08/30 09:36:17;;;;;;;7.07;5.80;;;;;;;14.31;100.00;100405.69;4965677;28;20062;-74
2023/08/30 09:38:50;;;;;;;7.75;6.13;;;;;;;14.32;100.00;100417.13;4967691;28;20041;-72
2023/08/30 09:41:17;;;;;;;9.25;5.63;;;;;;;14.32;100.00;100406.53;4957196;28;20055;-74
2023/08/30 09:43:44;;;;;;;6.85;6.10;;;;;;;14.32;100.00;100402.09;4966148;28;20049;-76
2023/08/30 09:46:12;;;;;;;7.95;5.35;;;;;;;14.30;100.00;100406.63;4967485;28;20691;-74
2023/08/30 09:48:40;;;;;;;6.75;5.88;;;;;;;14.26;100.00;100410.34;4960097;28;20043;-73
2023/08/30 09:51:10;;;;;;;7.90;5.90;;;;;;;14.26;100.00;100405.06;4967370;28;20055;-73
2023/08/30 09:53:44;;;;;;;7.65;5.88;;;;;;;14.29;100.00;100404.91;4965692;28;20135;-72
2023/08/30 09:56:35;;;;;;;8.32;6.50;;;;;;;14.42;100.00;100402.44;4966553;28;20157;-72
2023/08/30 09:59:04;;;;;;;7.72;5.75;;;;;;;14.52;100.00;100387.75;4961717;28;20047;-73
2023/08/30 10:01:32;;;;;;;6.72;6.03;;;;;;;14.67;100.00;100401.16;4966152;28;20046;-72
2023/08/30 10:04:03;;;;;;;10.82;5.93;;;;;;;14.88;100.00;100391.16;4966743;28;20042;-73
2023/08/30 10:06:32;;;;;;;6.20;5.60;;;;;;;15.07;100.00;100397.16;4966931;28;20058;-73
2023/08/30 10:09:03;;;;;;;6.82;6.13;;;;;;;15.20;100.00;100385.84;4967521;28;20054;-73
2023/08/30 10:11:33;;;;;;;8.55;6.50;;;;;;;15.31;100.00;100394.06;4965964;28;20114;-73
2023/08/30 10:14:03;;;;;;;7.82;5.78;;;;;;;15.41;100.00;100383.78;4966190;28;20066;-73
2023/08/30 10:16:43;;;;;;;6.82;5.75;;;;;;;15.50;100.00;100387.69;4966389;28;20123;-74
2023/08/30 10:19:31;;;;;;;6.60;5.43;;;;;;;15.56;100.00;100382.03;4965155;28;20066;-73
2023/08/30 10:22:14;;;;;;;6.68;5.40;;;;;;;15.55;100.00;100384.75;4966195;28;20066;-73
2023/08/30 10:24:49;;;;;;;7.85;5.28;;;;;;;15.58;100.00;100381.94;4966165;28;20058;-73
2023/08/30 10:27:43;;;;;;;10.05;5.82;;;;;;;15.60;100.00;100378.22;4965080;28;20046;-73
2023/08/30 10:30:13;;;;;;;6.15;5.20;;;;;;;15.54;100.00;100381.25;4966395;28;20143;-73
2023/08/30 10:32:41;;;;;;;5.80;5.25;;;;;;;15.48;100.00;100386.91;4962381;28;20043;-74
2023/08/30 10:35:17;;;;;;;6.00;5.40;;;;;;;15.56;100.00;100383.81;4965483;28;20043;-73
2023/08/30 10:37:59;;;;;;;7.25;5.28;;;;;;;15.72;100.00;100375.78;4965935;28;20522;-73
2023/08/30 10:40:26;;;;;;;6.28;5.28;;;;;;;15.85;100.00;100382.13;4963943;28;20054;-73
2023/08/30 10:43:02;;;;;;;6.65;4.85;;;;;;;16.04;100.00;100379.19;4965428;28;20310;-73
2023/08/30 10:45:30;;;;;;;5.88;5.28;;;;;;;16.21;100.00;100372.84;4961648;28;20047;-73
2023/08/30 10:47:59;;;;;;;6.10;5.00;;;;;;;16.42;100.00;100370.69;4964856;28;20543;-73
2023/08/30 10:50:32;;;;;;;5.75;5.10;;;;;;;16.68;100.00;100384.16;4965654;28;20118;-74
2023/08/30 10:53:00;;;;;;;5.95;5.40;;;;;;;16.86;100.00;100384.78;4959424;28;20134;-73
2023/08/30 10:55:27;;;;;;;6.53;5.60;;;;;;;17.13;100.00;100383.16;4966283;28;20070;-73
2023/08/30 10:58:06;;;;;;;5.90;5.30;;;;;;;17.34;100.00;100378.19;4965936;28;20047;-74
2023/08/30 11:00:35;;;;;;;5.60;4.97;;;;;;;17.54;99.99;100377.72;4963734;28;20136;-74
2023/08/30 11:03:03;;;;;;;5.50;4.80;;;;;;;17.72;98.74;100381.94;4963441;28;20050;-72
2023/08/30 11:05:31;;;;;;;5.63;5.00;;;;;;;17.87;96.64;100375.53;4968316;28;20105;-75
2023/08/30 11:07:58;;;;;;;5.93;5.10;;;;;;;17.96;95.61;100376.72;4967858;28;20097;-73
2023/08/30 11:10:25;;;;;;;6.53;5.22;;;;;;;18.11;95.65;100366.84;4966127;28;20148;-73
2023/08/30 11:12:52;;;;;;;5.63;4.88;;;;;;;18.32;95.06;100361.81;4964792;28;20047;-72
2023/08/30 11:15:21;;;;;;;5.50;4.55;;;;;;;18.40;95.07;100362.16;4966045;28;20478;-73
2023/08/30 11:17:48;;;;;;;5.07;4.53;;;;;;;18.55;95.53;100362.00;4965281;28;20109;-73
2023/08/30 11:20:18;;;;;;;7.20;5.15;;;;;;;18.79;94.73;100354.03;4965567;28;20243;-72